Janesville, Wisconsin
Current Conditions -  °F | °C
As of 7:45 AM on Saturday 25 Oct 2014 (Local Time) from KJVL Reporting Station
Haze Haze  
Wind Chill: 54°   Ceiling: Unl
Heat Index: 54°   Visibility: 3mi
Dew Point: 52°   Wind: 9mph
Humidity: 94%   Direction: 300°WNW
Pressure: 29.92"   Gusts: NA
Location:  42.69°N, 89.02°W
Report Text: KJVL 251245Z 30008KT 3SM BR CLR 12/11 A2992
Loading
Personal Weather Stations






























Interactive Weather Map New forecast layout! Learn more

10-Day Weather Forecast

Advertisements
Track Severe Weather on mobile